createdAt,value
2023-01-01T00:00:21.276Z,13.27
2023-01-01T00:02:23.211Z,13.22
2023-01-01T00:04:24.352Z,13.28
2023-01-01T00:06:25.990Z,13.27
2023-01-01T00:08:27.127Z,13.27
2023-01-01T00:10:28.622Z,13.15
2023-01-01T00:12:29.680Z,13.05
2023-01-01T00:14:30.693Z,13.04
2023-01-01T00:16:32.019Z,13.05
2023-01-01T00:18:33.166Z,13.05
2023-01-01T00:20:35.519Z,13.11
2023-01-01T00:22:53.707Z,13.06
2023-01-01T00:24:36.839Z,13.29
2023-01-01T00:26:37.978Z,13.26
2023-01-01T00:28:39.151Z,13.22
2023-01-01T00:30:40.158Z,13.1
2023-01-01T00:32:41.780Z,13.15
2023-01-01T00:34:42.704Z,12.94
2023-01-01T00:36:43.771Z,12.89
2023-01-01T00:38:44.833Z,13.02
2023-01-01T00:40:46.046Z,13
2023-01-01T00:42:47.527Z,13.24
2023-01-01T00:44:48.492Z,13.27
2023-01-01T00:46:49.964Z,13.41
2023-01-01T00:48:51.097Z,13.46
2023-01-01T00:50:52.533Z,13.35
2023-01-01T00:54:55.300Z,13.13
2023-01-01T00:56:56.434Z,12.96
2023-01-01T00:59:00.400Z,13.09
2023-01-01T01:00:58.580Z,13.04
2023-01-01T01:03:00.206Z,13.01
2023-01-01T01:05:01.273Z,12.78
2023-01-01T01:07:02.749Z,12.85
2023-01-01T01:09:04.513Z,12.79
2023-01-01T01:11:05.585Z,12.79
2023-01-01T01:13:06.478Z,12.8
2023-01-01T01:15:07.586Z,12.86
2023-01-01T01:17:08.695Z,12.78
2023-01-01T01:19:10.088Z,12.68
2023-01-01T01:21:11.850Z,12.67
2023-01-01T01:23:13.486Z,12.62
2023-01-01T01:25:58.755Z,12.65
2023-01-01T01:28:00.222Z,12.72
2023-01-01T01:30:01.115Z,12.81
2023-01-01T01:32:02.774Z,12.81
2023-01-01T01:34:04.634Z,12.85
2023-01-01T01:36:05.209Z,12.83
2023-01-01T01:38:06.762Z,12.93
2023-01-01T01:40:07.840Z,13.06
2023-01-01T01:42:08.736Z,13.1
2023-01-01T01:44:09.879Z,13.22
2023-01-01T01:46:11.229Z,13.3
2023-01-01T01:48:13.020Z,13.23
2023-01-01T01:50:14.080Z,13.3
2023-01-01T01:52:15.360Z,13.32
2023-01-01T01:54:17.003Z,13.1
2023-01-01T01:56:18.824Z,13.1
2023-01-01T01:58:20.094Z,13.1
2023-01-01T02:00:21.276Z,13.16
2023-01-01T02:02:23.229Z,13.21
2023-01-01T02:04:24.171Z,13.1
2023-01-01T02:06:25.237Z,13.11
2023-01-01T02:08:26.563Z,13.06
2023-01-01T02:10:27.972Z,13.06
2023-01-01T02:12:29.368Z,13.23
2023-01-01T02:14:31.278Z,13.1
2023-01-01T02:16:32.485Z,12.93
2023-01-01T02:18:33.847Z,12.79
2023-01-01T02:20:35.515Z,12.9
2023-01-01T02:22:37.105Z,12.79
2023-01-01T02:24:38.406Z,12.63
2023-01-01T02:26:40.160Z,12.57
2023-01-01T02:30:43.760Z,12.56
2023-01-01T02:32:44.705Z,12.48
2023-01-01T02:34:45.862Z,12.43
2023-01-01T02:36:47.534Z,12.4
2023-01-01T02:38:49.231Z,12.31
2023-01-01T02:40:50.312Z,12.24
2023-01-01T02:42:51.238Z,12.28
2023-01-01T02:44:52.961Z,12.17
2023-01-01T02:46:54.367Z,11.98
2023-01-01T02:48:55.393Z,11.82
2023-01-01T02:50:56.884Z,11.8
2023-01-01T02:52:58.061Z,11.75
2023-01-01T02:54:58.981Z,11.77
2023-01-01T02:57:00.194Z,11.66
2023-01-01T02:59:01.917Z,11.55
2023-01-01T03:01:03.088Z,11.63
2023-01-01T03:03:04.328Z,11.74
2023-01-01T03:05:05.651Z,12.01
2023-01-01T03:07:06.941Z,12.03
2023-01-01T03:09:08.090Z,12.07
2023-01-01T03:11:09.764Z,12.05
2023-01-01T03:13:10.958Z,12.15
2023-01-01T03:15:11.994Z,12.19
2023-01-01T03:17:13.020Z,12.08
2023-01-01T03:19:14.644Z,12.02
2023-01-01T03:23:17.203Z,12.08
2023-01-01T03:25:18.215Z,12.11
2023-01-01T03:27:20.109Z,12.21
2023-01-01T03:29:21.537Z,12.1
2023-01-01T03:31:23.196Z,11.91
2023-01-01T03:33:24.717Z,12.2
2023-01-01T03:35:25.654Z,11.97
2023-01-01T03:37:26.660Z,11.77
2023-01-01T03:39:27.738Z,11.72
2023-01-01T03:41:28.958Z,12.01
2023-01-01T03:43:30.623Z,11.82
2023-01-01T03:45:31.618Z,11.88
2023-01-01T03:47:33.192Z,11.99
2023-01-01T03:49:34.181Z,11.9
2023-01-01T03:51:35.961Z,12.09
2023-01-01T03:53:37.519Z,11.97
2023-01-01T03:55:39.283Z,12.11
2023-01-01T03:57:40.312Z,11.97
2023-01-01T03:59:42.081Z,11.9
2023-01-01T04:01:43.279Z,12.25
2023-01-01T04:03:45.117Z,11.95
2023-01-01T04:05:46.866Z,11.74
2023-01-01T04:09:49.804Z,11.64
2023-01-01T04:11:50.721Z,11.77
2023-01-01T04:13:51.689Z,12.05
2023-01-01T04:15:53.696Z,12.02
2023-01-01T04:17:54.545Z,12.15
2023-01-01T04:19:55.800Z,12.56
2023-01-01T04:21:57.333Z,12.39
2023-01-01T04:23:58.355Z,12.29
2023-01-01T04:25:59.419Z,12.25
2023-01-01T04:28:01.198Z,12.29
2023-01-01T04:30:02.564Z,12.34
2023-01-01T04:32:04.427Z,12.38
2023-01-01T04:34:05.535Z,12.31
2023-01-01T04:36:06.770Z,12.21
2023-01-01T04:38:07.874Z,12.15
2023-01-01T04:40:09.134Z,12.01
2023-01-01T04:42:11.010Z,12
2023-01-01T04:44:12.566Z,11.83
2023-01-01T04:46:14.283Z,11.78
2023-01-01T04:48:16.105Z,11.8
2023-01-01T04:50:18.003Z,11.77
2023-01-01T04:52:19.849Z,11.77
2023-01-01T04:54:21.453Z,11.64
2023-01-01T04:56:23.058Z,11.41
2023-01-01T04:58:24.152Z,11.44
2023-01-01T05:00:25.795Z,11.42
2023-01-01T05:02:26.960Z,11.28
2023-01-01T05:04:28.635Z,11.25
2023-01-01T05:06:30.431Z,11.1
2023-01-01T05:08:31.569Z,10.95
2023-01-01T05:10:32.519Z,10.86
2023-01-01T05:12:33.607Z,10.82
2023-01-01T05:14:34.986Z,11.05
2023-01-01T05:16:36.566Z,11.08
2023-01-01T05:18:37.502Z,10.88
2023-01-01T05:20:39.036Z,11.13
2023-01-01T05:22:40.338Z,11.11
2023-01-01T05:24:41.754Z,11.07
2023-01-01T05:26:42.801Z,10.97
2023-01-01T05:28:43.846Z,10.86
2023-01-01T05:30:45.685Z,10.86
2023-01-01T05:32:47.392Z,10.83
2023-01-01T05:34:48.902Z,10.8
2023-01-01T05:36:50.146Z,10.73
2023-01-01T05:38:51.753Z,10.51
2023-01-01T05:40:53.172Z,10.55
2023-01-01T05:42:54.732Z,10.58
2023-01-01T05:44:55.825Z,10.46
2023-01-01T05:46:57.464Z,10.47
2023-01-01T05:48:59.118Z,10.44
2023-01-01T05:51:00.328Z,10.55
2023-01-01T05:53:02.384Z,10.68
2023-01-01T05:55:03.219Z,10.62
2023-01-01T05:57:04.453Z,10.98
2023-01-01T05:59:06.208Z,10.89
2023-01-01T06:01:07.944Z,10.86
2023-01-01T06:03:09.285Z,10.82
2023-01-01T06:05:10.942Z,10.82
2023-01-01T06:07:12.666Z,10.82
2023-01-01T06:09:13.961Z,11
2023-01-01T06:11:14.992Z,10.82
2023-01-01T06:13:16.271Z,11.06
2023-01-01T06:15:17.227Z,11.17
2023-01-01T06:17:19.129Z,11.13
2023-01-01T06:19:21.030Z,11.13
2023-01-01T06:21:22.687Z,11.2
2023-01-01T06:23:23.900Z,11.14
2023-01-01T06:25:25.350Z,11.34
2023-01-01T06:27:26.791Z,11.24
2023-01-01T06:29:28.180Z,11.21
2023-01-01T06:31:29.248Z,11.25
2023-01-01T06:33:31.157Z,11.21
2023-01-01T06:35:32.180Z,11.17
2023-01-01T06:37:33.558Z,11.09
2023-01-01T06:39:34.914Z,11.28
2023-01-01T06:41:35.929Z,11.33
2023-01-01T06:43:37.392Z,11.35
2023-01-01T06:45:39.024Z,11.51
2023-01-01T06:47:40.495Z,11.41
2023-01-01T06:49:42.154Z,11.42
2023-01-01T06:51:43.356Z,11.28
2023-01-01T06:53:44.748Z,11.06
2023-01-01T06:55:46.651Z,11.1
2023-01-01T06:57:47.279Z,11.33
2023-01-01T06:59:49.031Z,11.27
2023-01-01T07:01:50.129Z,11.15
2023-01-01T07:03:51.097Z,11.06
2023-01-01T07:05:52.136Z,10.93
2023-01-01T07:07:53.187Z,10.79
2023-01-01T07:09:54.849Z,10.79
2023-01-01T07:11:56.810Z,10.88
2023-01-01T07:13:58.147Z,11.04
2023-01-01T07:18:00.515Z,11.33
2023-01-01T07:20:01.827Z,11.37
2023-01-01T07:22:03.171Z,11.29
2023-01-01T07:24:04.944Z,11.1
2023-01-01T07:26:06.279Z,11.13
2023-01-01T07:28:07.908Z,11.12
2023-01-01T07:30:08.883Z,11.06
2023-01-01T07:32:10.326Z,11.07
2023-01-01T07:34:11.582Z,11.06
2023-01-01T07:36:13.245Z,10.98
2023-01-01T07:38:14.560Z,10.83
2023-01-01T07:40:16.185Z,10.82
2023-01-01T07:42:17.294Z,10.8
2023-01-01T07:44:18.623Z,10.85
2023-01-01T07:46:19.868Z,10.95
2023-01-01T07:50:22.561Z,11.01
2023-01-01T07:52:23.735Z,11.08
2023-01-01T07:54:25.009Z,11.13
2023-01-01T07:56:26.182Z,11.17
2023-01-01T07:58:27.897Z,11.17
2023-01-01T08:00:29.625Z,11.25
2023-01-01T08:02:30.678Z,11.07
2023-01-01T08:04:31.620Z,11.01
2023-01-01T08:06:33.066Z,10.89
2023-01-01T08:08:34.090Z,10.95
2023-01-01T08:11:19.618Z,11.06
2023-01-01T08:13:20.703Z,11.06
2023-01-01T08:15:22.023Z,11.11
2023-01-01T08:17:23.166Z,11.21
2023-01-01T08:19:24.960Z,11.26
2023-01-01T08:21:26.595Z,11.3
2023-01-01T08:23:27.739Z,11.3
2023-01-01T08:25:29.003Z,11.1
2023-01-01T08:27:30.651Z,11.09
2023-01-01T08:29:31.816Z,11.15
2023-01-01T08:31:33.636Z,11.21
2023-01-01T08:33:35.448Z,11.29
2023-01-01T08:35:37.069Z,11.24
2023-01-01T08:37:38.649Z,11.39
2023-01-01T08:39:39.652Z,11.45
2023-01-01T08:41:41.047Z,11.52
2023-01-01T08:43:42.863Z,11.57
2023-01-01T08:45:44.090Z,11.64
2023-01-01T08:47:45.264Z,11.68
2023-01-01T08:49:47.170Z,11.73
2023-01-01T08:51:48.752Z,11.83
2023-01-01T08:53:51.381Z,12
2023-01-01T08:55:51.173Z,12.16
2023-01-01T08:57:53.562Z,12.33
2023-01-01T08:59:54.930Z,12.46
2023-01-01T09:01:56.765Z,12.76
2023-01-01T09:03:58.258Z,13.36
2023-01-01T09:05:59.545Z,13.47
2023-01-01T09:08:00.724Z,13.54
2023-01-01T09:10:01.690Z,13.57
2023-01-01T09:12:02.808Z,13.56
2023-01-01T09:14:04.600Z,13.56
2023-01-01T09:16:05.777Z,13.96
2023-01-01T09:18:07.242Z,14.16
2023-01-01T09:20:08.516Z,14.53
2023-01-01T09:26:11.608Z,14.55
2023-01-01T09:28:13.310Z,14.71
2023-01-01T09:30:15.114Z,14.68
2023-01-01T09:32:16.439Z,14.53
2023-01-01T09:34:17.794Z,14.13
2023-01-01T09:36:18.847Z,14.31
2023-01-01T09:38:20.515Z,14.54
2023-01-01T09:40:22.021Z,14.79
2023-01-01T09:42:23.630Z,14.95
2023-01-01T09:44:24.915Z,15.12
2023-01-01T09:46:31.337Z,15.34
2023-01-01T09:48:28.201Z,15.51
2023-01-01T09:50:29.179Z,15.3
2023-01-01T09:52:30.664Z,15.36
2023-01-01T09:54:31.916Z,15.34
2023-01-01T09:56:33.457Z,15.41
2023-01-01T09:58:35.040Z,15.46
2023-01-01T10:00:36.595Z,15.64
2023-01-01T10:02:38.542Z,15.65
2023-01-01T10:04:39.799Z,15.78
2023-01-01T10:08:42.571Z,15.52
2023-01-01T10:10:44.574Z,15.52
2023-01-01T10:12:45.769Z,15.52
2023-01-01T10:14:47.158Z,15.54
2023-01-01T10:16:48.539Z,15.29
2023-01-01T10:18:50.264Z,15.33
2023-01-01T10:20:51.474Z,15.25
2023-01-01T10:22:52.545Z,15.34
2023-01-01T10:24:53.518Z,15.3
2023-01-01T10:26:55.573Z,15.51
2023-01-01T10:28:57.457Z,15.5
2023-01-01T10:30:58.865Z,15.54
2023-01-01T10:33:00.447Z,15.56
2023-01-01T10:35:01.782Z,15.64
2023-01-01T10:37:02.997Z,15.78
2023-01-01T10:39:04.819Z,15.8
2023-01-01T10:41:05.867Z,15.91
2023-01-01T10:43:07.251Z,15.92
2023-01-01T10:45:08.443Z,15.83
2023-01-01T10:47:09.884Z,15.91
2023-01-01T10:49:11.066Z,16.03
2023-01-01T10:51:11.879Z,16.14
2023-01-01T10:53:14.165Z,16.21
2023-01-01T10:55:15.874Z,16.34
2023-01-01T10:57:17.629Z,16.38
2023-01-01T10:59:19.983Z,16.48
2023-01-01T11:01:20.989Z,16.53
2023-01-01T11:03:22.351Z,16.41
2023-01-01T11:05:23.946Z,16.34
2023-01-01T11:07:25.401Z,16.36
2023-01-01T11:09:26.512Z,16.31
2023-01-01T11:11:28.072Z,16.42
2023-01-01T11:13:29.690Z,16.7
2023-01-01T11:15:31.263Z,16.72
2023-01-01T11:17:32.234Z,16.77
2023-01-01T11:19:33.155Z,16.71
2023-01-01T11:21:34.372Z,16.67
2023-01-01T11:23:35.979Z,16.69
2023-01-01T11:25:37.367Z,16.59
2023-01-01T11:27:38.976Z,16.75
2023-01-01T11:29:40.390Z,16.54
2023-01-01T11:31:41.853Z,16.62
2023-01-01T11:33:42.792Z,16.64
2023-01-01T11:35:44.332Z,16.66
2023-01-01T11:37:45.784Z,16.63
2023-01-01T11:39:47.110Z,16.74
2023-01-01T11:41:48.909Z,16.59
2023-01-01T11:43:50.174Z,16.59
2023-01-01T11:45:52.431Z,16.64
2023-01-01T11:47:54.141Z,16.74
2023-01-01T11:49:55.003Z,16.8
2023-01-01T11:51:56.548Z,16.67
2023-01-01T11:53:58.093Z,16.66
2023-01-01T11:55:59.009Z,16.61
2023-01-01T11:57:59.840Z,16.54
2023-01-01T12:00:00.956Z,16.48
2023-01-01T12:02:02.555Z,16.38
2023-01-01T12:04:03.939Z,16.41
2023-01-01T12:06:05.272Z,16.34
2023-01-01T12:08:06.588Z,16.37
2023-01-01T12:10:08.319Z,16.46
2023-01-01T12:12:09.518Z,16.45
2023-01-01T12:14:10.545Z,16.34
2023-01-01T12:16:11.910Z,16.39
2023-01-01T12:18:12.829Z,16.37
2023-01-01T12:20:13.767Z,16.33
2023-01-01T12:22:14.708Z,16.28
2023-01-01T12:24:16.063Z,16.26
2023-01-01T12:26:17.732Z,16.22
2023-01-01T12:28:19.172Z,16.24
2023-01-01T12:32:21.991Z,16.16
2023-01-01T12:34:23.036Z,16.17
2023-01-01T12:36:24.928Z,16.15
2023-01-01T12:38:25.713Z,16.08
2023-01-01T12:40:26.927Z,16.07
2023-01-01T12:42:27.947Z,16.09
2023-01-01T12:44:29.613Z,16.12
2023-01-01T12:46:31.001Z,16.1
2023-01-01T12:48:32.286Z,16.1
2023-01-01T12:50:33.936Z,16.08
2023-01-01T12:52:36.220Z,16.06
2023-01-01T12:54:37.360Z,16.19
2023-01-01T12:56:38.691Z,16.26
2023-01-01T12:58:40.063Z,16.32
2023-01-01T13:00:41.175Z,16.44
2023-01-01T13:02:42.166Z,16.61
2023-01-01T13:04:42.924Z,16.78
2023-01-01T13:06:44.201Z,16.93
2023-01-01T13:08:45.450Z,17.06
2023-01-01T13:10:46.820Z,17.3
2023-01-01T13:12:48.113Z,17.23
2023-01-01T13:14:49.658Z,17.1
2023-01-01T13:16:51.240Z,17.04
2023-01-01T13:18:54.187Z,16.91
2023-01-01T13:20:54.128Z,16.84
2023-01-01T13:22:55.240Z,16.8
2023-01-01T13:24:56.277Z,16.67
2023-01-01T13:26:57.209Z,16.69
2023-01-01T13:28:59.768Z,16.67
2023-01-01T13:31:01.646Z,16.61
2023-01-01T13:33:02.476Z,16.64
2023-01-01T13:35:03.359Z,16.66
2023-01-01T13:37:04.307Z,16.63
2023-01-01T13:39:05.668Z,16.68
2023-01-01T13:41:06.942Z,16.73
2023-01-01T13:43:08.114Z,16.62
2023-01-01T13:45:08.998Z,16.57
2023-01-01T13:47:10.131Z,16.59
2023-01-01T13:49:11.341Z,16.54
2023-01-01T13:51:19.375Z,16.57
2023-01-01T13:53:14.243Z,16.6
2023-01-01T13:55:15.521Z,16.55
2023-01-01T13:57:17.203Z,16.48
2023-01-01T13:59:18.365Z,16.55
2023-01-01T14:01:19.931Z,16.7
2023-01-01T14:03:21.042Z,16.75
2023-01-01T14:05:22.086Z,16.8
2023-01-01T14:07:50.000Z,16.84
2023-01-01T14:09:24.784Z,16.83
2023-01-01T14:13:29.573Z,16.79
2023-01-01T14:15:28.929Z,16.81
2023-01-01T14:17:30.098Z,16.79
2023-01-01T14:19:31.328Z,16.82
2023-01-01T14:21:32.680Z,16.76
2023-01-01T14:23:33.918Z,16.82
2023-01-01T14:25:35.232Z,16.79
2023-01-01T14:27:36.201Z,16.79
2023-01-01T14:29:37.303Z,16.78
2023-01-01T14:31:38.992Z,16.64
2023-01-01T14:33:39.816Z,16.6
2023-01-01T14:35:41.232Z,16.58
2023-01-01T14:37:43.054Z,16.49
2023-01-01T14:39:44.245Z,16.44
2023-01-01T14:41:45.548Z,16.42
2023-01-01T14:43:46.526Z,16.31
2023-01-01T14:45:47.963Z,16.29
2023-01-01T14:47:49.445Z,16.3
2023-01-01T14:49:51.240Z,16.26
2023-01-01T14:51:52.988Z,16.23
2023-01-01T14:53:54.480Z,16.17
2023-01-01T14:56:39.511Z,16.17
2023-01-01T14:58:41.165Z,16.08
2023-01-01T15:00:42.111Z,16.11
2023-01-01T15:02:43.109Z,16.04
2023-01-01T15:04:44.478Z,16.04
2023-01-01T15:06:45.967Z,15.99
2023-01-01T15:08:47.468Z,16.01
2023-01-01T15:10:49.294Z,15.97
2023-01-01T15:12:50.302Z,15.86
2023-01-01T15:14:51.628Z,15.93
2023-01-01T15:16:53.342Z,15.87
2023-01-01T15:18:54.634Z,15.85
2023-01-01T15:20:56.328Z,15.89
2023-01-01T15:22:57.330Z,15.88
2023-01-01T15:24:58.757Z,15.88
2023-01-01T15:26:59.657Z,15.8
2023-01-01T15:29:01.323Z,15.85
2023-01-01T15:31:02.742Z,15.86
2023-01-01T15:33:04.508Z,15.89
2023-01-01T15:35:05.487Z,15.83
2023-01-01T15:37:06.579Z,15.79
2023-01-01T15:39:08.423Z,15.73
2023-01-01T15:41:10.066Z,15.73
2023-01-01T15:43:11.189Z,15.59
2023-01-01T15:45:12.501Z,15.63
2023-01-01T15:49:15.180Z,15.59
2023-01-01T15:51:16.555Z,15.55
2023-01-01T15:53:18.243Z,15.51
2023-01-01T15:55:19.371Z,15.47
2023-01-01T15:57:20.454Z,15.44
2023-01-01T15:59:21.604Z,15.5
2023-01-01T16:01:23.164Z,15.46
2023-01-01T16:03:24.431Z,15.32
2023-01-01T16:05:25.314Z,15.29
2023-01-01T16:07:26.975Z,15.45
2023-01-01T16:09:28.223Z,15.34
2023-01-01T16:11:30.076Z,15.22
2023-01-01T16:13:31.657Z,15.09
2023-01-01T16:15:32.688Z,15.16
2023-01-01T16:17:34.232Z,15.18
2023-01-01T16:19:35.961Z,15.13
2023-01-01T16:21:37.169Z,15.24
2023-01-01T16:23:38.687Z,15.37
2023-01-01T16:25:40.002Z,15.39
2023-01-01T16:27:41.224Z,15.27
2023-01-01T16:29:43.650Z,15.28
2023-01-01T16:31:43.715Z,15.25
2023-01-01T16:33:45.164Z,15.24
2023-01-01T16:35:46.455Z,15.04
2023-01-01T16:37:47.808Z,14.92
2023-01-01T16:39:49.415Z,14.81
2023-01-01T16:41:51.036Z,14.74
2023-01-01T16:43:52.848Z,14.73
2023-01-01T16:45:53.925Z,14.84
2023-01-01T16:47:55.687Z,14.88
2023-01-01T16:49:57.501Z,14.83
2023-01-01T16:51:59.267Z,14.39
2023-01-01T16:54:00.956Z,14.62
2023-01-01T16:56:02.189Z,14.57
2023-01-01T16:58:38.523Z,14.35
2023-01-01T17:00:04.551Z,14.05
2023-01-01T17:02:05.685Z,14.09
2023-01-01T17:04:06.799Z,14.48
2023-01-01T17:06:08.276Z,14.44
2023-01-01T17:08:09.281Z,14.29
2023-01-01T17:10:10.679Z,14.02
2023-01-01T17:12:12.603Z,13.8
2023-01-01T17:14:14.071Z,13.21
2023-01-01T17:16:21.097Z,13.34
2023-01-01T17:18:17.270Z,12.88
2023-01-01T17:20:19.093Z,12.48
2023-01-01T17:22:20.293Z,12.13
2023-01-01T17:24:21.975Z,11.95
2023-01-01T17:26:23.605Z,11.74
2023-01-01T17:28:24.948Z,11.55
2023-01-01T17:30:26.074Z,11.56
2023-01-01T17:32:27.113Z,11.6
2023-01-01T17:34:28.952Z,11.42
2023-01-01T17:36:30.129Z,11.34
2023-01-01T17:38:31.405Z,11.13
2023-01-01T17:40:36.776Z,11.19
2023-01-01T17:42:33.953Z,11.49
2023-01-01T17:44:35.436Z,11.35
2023-01-01T17:46:36.910Z,11.34
2023-01-01T17:48:38.469Z,11.3
2023-01-01T17:50:39.553Z,11.19
2023-01-01T17:52:40.563Z,11.03
2023-01-01T17:54:42.224Z,10.54
2023-01-01T17:56:43.301Z,10.25
2023-01-01T17:58:45.157Z,10.35
2023-01-01T18:00:46.993Z,10.54
2023-01-01T18:02:48.714Z,11.78
2023-01-01T18:04:50.389Z,12.29
2023-01-01T18:06:54.554Z,11.68
2023-01-01T18:08:52.838Z,10.98
2023-01-01T18:10:53.924Z,10.47
2023-01-01T18:12:55.246Z,10.37
2023-01-01T18:14:56.354Z,10.43
2023-01-01T18:16:58.206Z,10.07
2023-01-01T18:18:59.601Z,10.75
2023-01-01T18:21:01.063Z,11.1
2023-01-01T18:23:02.749Z,11.25
2023-01-01T18:25:04.056Z,10.7
2023-01-01T18:27:05.080Z,11.82
2023-01-01T18:29:06.935Z,11.33
2023-01-01T18:31:08.472Z,10.38
2023-01-01T18:33:09.570Z,9.77
2023-01-01T18:35:10.628Z,9.79
2023-01-01T18:37:12.086Z,9.77
2023-01-01T18:39:13.409Z,9.61
2023-01-01T18:41:14.725Z,9.48
2023-01-01T18:43:16.217Z,9.46
2023-01-01T18:45:17.387Z,9.6
2023-01-01T18:47:19.014Z,9.52
2023-01-01T18:49:20.012Z,9.61
2023-01-01T18:51:21.182Z,9.61
2023-01-01T18:53:22.641Z,9.82
2023-01-01T18:55:24.395Z,9.75
2023-01-01T18:57:29.080Z,9.47
2023-01-01T18:59:26.400Z,9.31
2023-01-01T19:01:28.073Z,9.54
2023-01-01T19:03:29.888Z,9.5
2023-01-01T19:05:31.020Z,9.44
2023-01-01T19:07:32.137Z,9.43
2023-01-01T19:09:33.311Z,9.52
2023-01-01T19:11:35.203Z,9.72
2023-01-01T19:13:36.634Z,9.79
2023-01-01T19:15:37.600Z,10
2023-01-01T19:17:39.488Z,10.09
2023-01-01T19:19:40.814Z,10.01
2023-01-01T19:21:45.265Z,10.03
2023-01-01T19:23:43.400Z,10.26
2023-01-01T19:25:44.779Z,10.66
2023-01-01T19:27:50.618Z,10.7
2023-01-01T19:29:47.615Z,10.43
2023-01-01T19:31:49.581Z,10.39
2023-01-01T19:33:50.955Z,10.45
2023-01-01T19:35:52.200Z,10.7
2023-01-01T19:37:53.366Z,10.55
2023-01-01T19:39:54.799Z,10.41
2023-01-01T19:41:56.763Z,10.22
2023-01-01T19:43:57.940Z,10.46
2023-01-01T19:45:58.892Z,10.44
2023-01-01T19:47:59.971Z,10.5
2023-01-01T19:50:01.694Z,9.96
2023-01-01T19:52:02.998Z,9.54
2023-01-01T19:54:04.474Z,10.39
2023-01-01T19:56:05.449Z,10.22
2023-01-01T19:58:06.663Z,11.2
2023-01-01T20:00:08.496Z,10.89
2023-01-01T20:02:43.808Z,11.67
2023-01-01T20:04:11.763Z,12.39
2023-01-01T20:06:12.566Z,12.79
2023-01-01T20:08:14.090Z,12.43
2023-01-01T20:10:15.382Z,11.85
2023-01-01T20:12:17.129Z,11.77
2023-01-01T20:14:18.617Z,11.4
2023-01-01T20:16:20.379Z,11.93
2023-01-01T20:18:22.147Z,12.04
2023-01-01T20:20:23.302Z,11.9
2023-01-01T20:22:24.788Z,11.62
2023-01-01T20:24:25.708Z,11.93
2023-01-01T20:26:27.523Z,12.64
2023-01-01T20:28:29.076Z,12.36
2023-01-01T20:30:30.054Z,12.54
2023-01-01T20:32:31.846Z,12.12
2023-01-01T20:36:35.340Z,11.53
2023-01-01T20:38:40.312Z,11.57
2023-01-01T20:40:38.227Z,11.39
2023-01-01T20:42:39.648Z,11.03
2023-01-01T20:44:40.838Z,10.8
2023-01-01T20:46:42.332Z,10.68
2023-01-01T20:48:43.648Z,10.73
2023-01-01T20:50:44.672Z,10.61
2023-01-01T20:52:46.017Z,10.67
2023-01-01T20:54:47.784Z,10.59
2023-01-01T20:56:49.380Z,10.55
2023-01-01T20:58:53.263Z,10.78
2023-01-01T21:00:52.179Z,10.76
2023-01-01T21:02:54.117Z,11.13
2023-01-01T21:04:55.103Z,11.23
2023-01-01T21:06:56.581Z,11.34
2023-01-01T21:08:57.838Z,11.45
2023-01-01T21:10:59.027Z,11.36
2023-01-01T21:12:59.999Z,11.25
2023-01-01T21:15:01.547Z,11.31
2023-01-01T21:17:02.595Z,11.49
2023-01-01T21:19:04.041Z,11.48
2023-01-01T21:21:05.153Z,11.62
2023-01-01T21:23:07.044Z,11.8
2023-01-01T21:25:40.765Z,11.82
2023-01-01T21:27:09.655Z,11.67
2023-01-01T21:29:11.090Z,11.69
2023-01-01T21:31:12.740Z,11.7
2023-01-01T21:33:14.114Z,11.73
2023-01-01T21:35:15.479Z,11.56
2023-01-01T21:37:17.154Z,11.7
2023-01-01T21:39:18.132Z,11.73
2023-01-01T21:40:01.924Z,11.66
2023-01-01T21:42:03.350Z,11.61
2023-01-01T21:44:05.256Z,11.6
2023-01-01T21:46:06.559Z,11.51
2023-01-01T21:48:07.921Z,11.31
2023-01-01T21:50:09.826Z,11.28
2023-01-01T21:52:10.800Z,11.03
2023-01-01T21:54:12.148Z,10.55
2023-01-01T21:56:13.546Z,10.59
2023-01-01T21:58:19.425Z,10.93
2023-01-01T22:00:16.511Z,11.04
2023-01-01T22:02:18.356Z,10.95
2023-01-01T22:04:19.993Z,11.07
2023-01-01T22:06:20.978Z,11.06
2023-01-01T22:08:22.157Z,11.14
2023-01-01T22:10:23.663Z,11.15
2023-01-01T22:12:25.295Z,11.11
2023-01-01T22:14:27.000Z,11.06
2023-01-01T22:16:28.591Z,11.08
2023-01-01T22:18:29.930Z,10.82
2023-01-01T22:20:31.167Z,10.58
2023-01-01T22:22:33.054Z,10.37
2023-01-01T22:24:34.792Z,10.22
2023-01-01T22:26:36.142Z,10.38
2023-01-01T22:28:37.896Z,10.98
2023-01-01T22:30:39.507Z,11
2023-01-01T22:32:40.593Z,11.38
2023-01-01T22:34:41.617Z,11.39
2023-01-01T22:36:42.843Z,11.49
2023-01-01T22:38:44.084Z,11.78
2023-01-01T22:40:45.231Z,11.92
2023-01-01T22:42:46.170Z,11.95
2023-01-01T22:44:47.376Z,12.01
2023-01-01T22:46:48.858Z,11.86
2023-01-01T22:48:57.422Z,11.8
2023-01-01T22:50:51.211Z,11.81
2023-01-01T22:52:52.458Z,11.56
2023-01-01T22:54:53.478Z,11.36
2023-01-01T22:56:54.905Z,11.28
2023-01-01T22:58:57.413Z,11.36
2023-01-01T23:00:57.982Z,11.34
2023-01-01T23:02:59.817Z,11.55
2023-01-01T23:05:00.987Z,11.61
2023-01-01T23:07:02.591Z,11.89
2023-01-01T23:09:03.867Z,11.87
2023-01-01T23:11:05.338Z,12.15
2023-01-01T23:13:06.749Z,12
2023-01-01T23:15:08.363Z,12.27
2023-01-01T23:17:10.052Z,12.13
2023-01-01T23:19:11.747Z,12.2
2023-01-01T23:21:12.756Z,12.31
2023-01-01T23:23:14.380Z,12.31
2023-01-01T23:25:15.421Z,12.08
2023-01-01T23:27:17.128Z,12.12
2023-01-01T23:29:18.205Z,12.1
2023-01-01T23:31:25.021Z,12.05
2023-01-01T23:33:21.763Z,12.03
2023-01-01T23:35:23.369Z,11.76
2023-01-01T23:37:24.699Z,11.28
2023-01-01T23:39:25.724Z,11.19
2023-01-01T23:41:26.653Z,11.15
2023-01-01T23:43:27.978Z,11.32
2023-01-01T23:45:29.274Z,11.36
2023-01-01T23:47:30.850Z,11.75
2023-01-01T23:49:32.437Z,11.61
2023-01-01T23:51:34.312Z,11.41
2023-01-01T23:53:35.800Z,11.72
2023-01-01T23:55:37.161Z,11.78
2023-01-01T23:57:38.413Z,11.73
2023-01-01T23:59:39.633Z,11.57
